sensor_id;sensor_type;location;lat;lon;timestamp;P1;durP1;ratioP1;P2;durP2;ratioP2
20545;SDS011;10431;50.228;9.112;2023-04-24T00:00:23;1.90;;;1.45;;
20545;SDS011;10431;50.228;9.112;2023-04-24T00:02:49;2.50;;;1.40;;
20545;SDS011;10431;50.228;9.112;2023-04-24T00:05:16;4.22;;;1.73;;
20545;SDS011;10431;50.228;9.112;2023-04-24T00:07:43;3.20;;;1.50;;
20545;SDS011;10431;50.228;9.112;2023-04-24T00:10:10;1.60;;;1.45;;
20545;SDS011;10431;50.228;9.112;2023-04-24T00:12:38;1.88;;;1.38;;
20545;SDS011;10431;50.228;9.112;2023-04-24T00:15:04;1.50;;;1.40;;
20545;SDS011;10431;50.228;9.112;2023-04-24T00:17:31;3.42;;;1.85;;
20545;SDS011;10431;50.228;9.112;2023-04-24T00:19:57;1.60;;;1.45;;
20545;SDS011;10431;50.228;9.112;2023-04-24T00:22:24;2.05;;;1.40;;
20545;SDS011;10431;50.228;9.112;2023-04-24T00:24:51;1.60;;;1.50;;
20545;SDS011;10431;50.228;9.112;2023-04-24T00:27:17;1.70;;;1.50;;
20545;SDS011;10431;50.228;9.112;2023-04-24T00:29:43;2.20;;;1.80;;
20545;SDS011;10431;50.228;9.112;2023-04-24T00:32:10;2.58;;;1.80;;
20545;SDS011;10431;50.228;9.112;2023-04-24T00:34:36;1.98;;;1.50;;
20545;SDS011;10431;50.228;9.112;2023-04-24T00:37:02;1.70;;;1.35;;
20545;SDS011;10431;50.228;9.112;2023-04-24T00:39:29;1.70;;;1.30;;
20545;SDS011;10431;50.228;9.112;2023-04-24T00:41:55;4.05;;;1.50;;
20545;SDS011;10431;50.228;9.112;2023-04-24T00:44:22;3.63;;;1.80;;
20545;SDS011;10431;50.228;9.112;2023-04-24T00:46:49;3.35;;;1.52;;
20545;SDS011;10431;50.228;9.112;2023-04-24T00:49:21;1.30;;;1.20;;
20545;SDS011;10431;50.228;9.112;2023-04-24T00:51:48;2.22;;;1.50;;
20545;SDS011;10431;50.228;9.112;2023-04-24T00:54:15;1.70;;;1.60;;
20545;SDS011;10431;50.228;9.112;2023-04-24T00:56:42;1.95;;;1.50;;
20545;SDS011;10431;50.228;9.112;2023-04-24T00:59:09;3.58;;;1.80;;
20545;SDS011;10431;50.228;9.112;2023-04-24T01:01:41;1.30;;;1.20;;
20545;SDS011;10431;50.228;9.112;2023-04-24T01:04:08;1.50;;;1.40;;
20545;SDS011;10431;50.228;9.112;2023-04-24T01:06:35;2.92;;;1.27;;
20545;SDS011;10431;50.228;9.112;2023-04-24T01:09:04;1.40;;;1.30;;
20545;SDS011;10431;50.228;9.112;2023-04-24T01:11:30;1.40;;;1.30;;
20545;SDS011;10431;50.228;9.112;2023-04-24T01:13:57;2.42;;;1.38;;
20545;SDS011;10431;50.228;9.112;2023-04-24T01:16:24;2.10;;;1.30;;
20545;SDS011;10431;50.228;9.112;2023-04-24T01:18:50;1.83;;;1.40;;
20545;SDS011;10431;50.228;9.112;2023-04-24T01:21:18;1.48;;;1.33;;
20545;SDS011;10431;50.228;9.112;2023-04-24T01:23:47;1.75;;;1.30;;
20545;SDS011;10431;50.228;9.112;2023-04-24T01:26:14;1.58;;;1.38;;
20545;SDS011;10431;50.228;9.112;2023-04-24T01:28:41;2.00;;;1.17;;
20545;SDS011;10431;50.228;9.112;2023-04-24T01:31:07;1.90;;;1.50;;
20545;SDS011;10431;50.228;9.112;2023-04-24T01:33:33;3.20;;;1.30;;
20545;SDS011;10431;50.228;9.112;2023-04-24T01:36:00;1.17;;;1.13;;
20545;SDS011;10431;50.228;9.112;2023-04-24T01:38:26;1.45;;;1.30;;
20545;SDS011;10431;50.228;9.112;2023-04-24T01:40:53;1.80;;;1.50;;
20545;SDS011;10431;50.228;9.112;2023-04-24T01:43:19;2.25;;;1.50;;
20545;SDS011;10431;50.228;9.112;2023-04-24T01:45:46;1.38;;;1.27;;
20545;SDS011;10431;50.228;9.112;2023-04-24T01:48:12;2.20;;;1.17;;
20545;SDS011;10431;50.228;9.112;2023-04-24T01:50:39;1.38;;;1.25;;
20545;SDS011;10431;50.228;9.112;2023-04-24T01:53:05;1.20;;;1.10;;
20545;SDS011;10431;50.228;9.112;2023-04-24T01:55:32;1.77;;;1.40;;
20545;SDS011;10431;50.228;9.112;2023-04-24T01:57:58;1.83;;;1.48;;
20545;SDS011;10431;50.228;9.112;2023-04-24T02:00:26;3.10;;;1.33;;
20545;SDS011;10431;50.228;9.112;2023-04-24T02:02:52;1.35;;;1.23;;
20545;SDS011;10431;50.228;9.112;2023-04-24T02:05:18;3.63;;;1.40;;
20545;SDS011;10431;50.228;9.112;2023-04-24T02:07:45;1.70;;;1.30;;
20545;SDS011;10431;50.228;9.112;2023-04-24T02:10:11;1.33;;;1.23;;
20545;SDS011;10431;50.228;9.112;2023-04-24T02:12:41;1.40;;;1.30;;
20545;SDS011;10431;50.228;9.112;2023-04-24T02:15:08;1.55;;;1.30;;
20545;SDS011;10431;50.228;9.112;2023-04-24T02:17:36;1.30;;;1.20;;
20545;SDS011;10431;50.228;9.112;2023-04-24T02:20:04;2.17;;;1.30;;
20545;SDS011;10431;50.228;9.112;2023-04-24T02:22:32;1.40;;;1.30;;
20545;SDS011;10431;50.228;9.112;2023-04-24T02:25:01;3.20;;;1.42;;
20545;SDS011;10431;50.228;9.112;2023-04-24T02:27:27;2.55;;;1.27;;
20545;SDS011;10431;50.228;9.112;2023-04-24T02:29:54;1.15;;;1.05;;
20545;SDS011;10431;50.228;9.112;2023-04-24T02:32:21;1.92;;;1.10;;
20545;SDS011;10431;50.228;9.112;2023-04-24T02:34:47;1.27;;;1.00;;
20545;SDS011;10431;50.228;9.112;2023-04-24T02:37:14;1.95;;;1.02;;
20545;SDS011;10431;50.228;9.112;2023-04-24T02:39:40;1.92;;;1.40;;
20545;SDS011;10431;50.228;9.112;2023-04-24T02:42:06;2.10;;;1.20;;
20545;SDS011;10431;50.228;9.112;2023-04-24T02:44:34;1.52;;;1.20;;
20545;SDS011;10431;50.228;9.112;2023-04-24T02:47:00;1.67;;;1.58;;
20545;SDS011;10431;50.228;9.112;2023-04-24T02:49:27;1.20;;;1.10;;
20545;SDS011;10431;50.228;9.112;2023-04-24T02:51:53;1.20;;;1.10;;
20545;SDS011;10431;50.228;9.112;2023-04-24T02:54:20;1.40;;;1.30;;
20545;SDS011;10431;50.228;9.112;2023-04-24T02:56:46;1.48;;;1.10;;
20545;SDS011;10431;50.228;9.112;2023-04-24T02:59:12;1.52;;;1.05;;
20545;SDS011;10431;50.228;9.112;2023-04-24T03:01:38;2.40;;;1.10;;
20545;SDS011;10431;50.228;9.112;2023-04-24T03:04:04;1.27;;;1.17;;
20545;SDS011;10431;50.228;9.112;2023-04-24T03:06:31;1.80;;;1.33;;
20545;SDS011;10431;50.228;9.112;2023-04-24T03:08:58;0.93;;;0.93;;
20545;SDS011;10431;50.228;9.112;2023-04-24T03:11:25;1.80;;;1.30;;
20545;SDS011;10431;50.228;9.112;2023-04-24T03:13:51;1.40;;;1.30;;
20545;SDS011;10431;50.228;9.112;2023-04-24T03:16:19;1.13;;;1.02;;
20545;SDS011;10431;50.228;9.112;2023-04-24T03:18:46;1.35;;;1.15;;
20545;SDS011;10431;50.228;9.112;2023-04-24T03:21:12;0.90;;;0.90;;
20545;SDS011;10431;50.228;9.112;2023-04-24T03:23:39;1.20;;;1.10;;
20545;SDS011;10431;50.228;9.112;2023-04-24T03:26:06;1.10;;;0.95;;
20545;SDS011;10431;50.228;9.112;2023-04-24T03:28:34;1.50;;;1.17;;
20545;SDS011;10431;50.228;9.112;2023-04-24T03:31:03;1.65;;;1.42;;
20545;SDS011;10431;50.228;9.112;2023-04-24T03:33:33;1.48;;;1.05;;
20545;SDS011;10431;50.228;9.112;2023-04-24T03:36:00;1.33;;;1.00;;
20545;SDS011;10431;50.228;9.112;2023-04-24T03:38:34;1.80;;;1.00;;
20545;SDS011;10431;50.228;9.112;2023-04-24T03:41:16;1.40;;;1.08;;
20545;SDS011;10431;50.228;9.112;2023-04-24T03:43:47;1.15;;;1.05;;
20545;SDS011;10431;50.228;9.112;2023-04-24T03:46:14;1.30;;;1.10;;
20545;SDS011;10431;50.228;9.112;2023-04-24T03:48:46;1.73;;;1.10;;
20545;SDS011;10431;50.228;9.112;2023-04-24T03:51:15;1.30;;;1.13;;
20545;SDS011;10431;50.228;9.112;2023-04-24T03:53:44;1.20;;;1.10;;
20545;SDS011;10431;50.228;9.112;2023-04-24T03:56:13;1.15;;;0.95;;
20545;SDS011;10431;50.228;9.112;2023-04-24T03:58:40;2.85;;;1.20;;
20545;SDS011;10431;50.228;9.112;2023-04-24T04:01:07;1.13;;;0.90;;
20545;SDS011;10431;50.228;9.112;2023-04-24T04:03:54;1.98;;;1.00;;
20545;SDS011;10431;50.228;9.112;2023-04-24T04:06:23;2.15;;;1.38;;
20545;SDS011;10431;50.228;9.112;2023-04-24T04:08:51;1.80;;;1.02;;
20545;SDS011;10431;50.228;9.112;2023-04-24T04:11:17;1.13;;;1.10;;
20545;SDS011;10431;50.228;9.112;2023-04-24T04:13:45;1.33;;;1.13;;
20545;SDS011;10431;50.228;9.112;2023-04-24T04:16:14;2.72;;;1.30;;
20545;SDS011;10431;50.228;9.112;2023-04-24T04:18:44;1.10;;;1.00;;
20545;SDS011;10431;50.228;9.112;2023-04-24T04:21:11;1.83;;;1.20;;
20545;SDS011;10431;50.228;9.112;2023-04-24T04:23:37;1.00;;;1.00;;
20545;SDS011;10431;50.228;9.112;2023-04-24T04:26:10;1.20;;;1.10;;
20545;SDS011;10431;50.228;9.112;2023-04-24T04:28:53;1.10;;;1.00;;
20545;SDS011;10431;50.228;9.112;2023-04-24T04:31:20;1.13;;;0.90;;
20545;SDS011;10431;50.228;9.112;2023-04-24T04:33:47;1.08;;;0.95;;
20545;SDS011;10431;50.228;9.112;2023-04-24T04:36:14;2.28;;;1.00;;
20545;SDS011;10431;50.228;9.112;2023-04-24T04:38:44;2.80;;;0.90;;
20545;SDS011;10431;50.228;9.112;2023-04-24T04:41:24;1.73;;;1.00;;
20545;SDS011;10431;50.228;9.112;2023-04-24T04:43:52;1.23;;;0.95;;
20545;SDS011;10431;50.228;9.112;2023-04-24T04:46:19;1.17;;;0.98;;
20545;SDS011;10431;50.228;9.112;2023-04-24T04:48:55;5.03;;;1.15;;
20545;SDS011;10431;50.228;9.112;2023-04-24T04:51:25;1.30;;;0.90;;
20545;SDS011;10431;50.228;9.112;2023-04-24T04:53:52;3.00;;;0.88;;
20545;SDS011;10431;50.228;9.112;2023-04-24T04:56:18;1.83;;;1.20;;
20545;SDS011;10431;50.228;9.112;2023-04-24T04:58:45;1.17;;;1.00;;
20545;SDS011;10431;50.228;9.112;2023-04-24T05:01:14;1.33;;;1.00;;
20545;SDS011;10431;50.228;9.112;2023-04-24T05:03:44;0.90;;;0.90;;
20545;SDS011;10431;50.228;9.112;2023-04-24T05:06:13;1.88;;;1.20;;
20545;SDS011;10431;50.228;9.112;2023-04-24T05:08:40;1.88;;;1.00;;
20545;SDS011;10431;50.228;9.112;2023-04-24T05:11:10;2.83;;;0.90;;
20545;SDS011;10431;50.228;9.112;2023-04-24T05:13:38;1.52;;;0.90;;
20545;SDS011;10431;50.228;9.112;2023-04-24T05:16:08;2.95;;;1.15;;
20545;SDS011;10431;50.228;9.112;2023-04-24T05:18:34;1.17;;;1.08;;
20545;SDS011;10431;50.228;9.112;2023-04-24T05:21:01;1.35;;;1.00;;
20545;SDS011;10431;50.228;9.112;2023-04-24T05:23:27;1.15;;;0.90;;
20545;SDS011;10431;50.228;9.112;2023-04-24T05:25:55;1.08;;;0.95;;
20545;SDS011;10431;50.228;9.112;2023-04-24T05:28:21;1.55;;;0.80;;
20545;SDS011;10431;50.228;9.112;2023-04-24T05:31:00;1.45;;;0.88;;
20545;SDS011;10431;50.228;9.112;2023-04-24T05:33:28;1.33;;;1.02;;
20545;SDS011;10431;50.228;9.112;2023-04-24T05:35:54;1.40;;;0.90;;
20545;SDS011;10431;50.228;9.112;2023-04-24T05:38:21;1.45;;;1.00;;
20545;SDS011;10431;50.228;9.112;2023-04-24T05:40:47;1.00;;;0.90;;
20545;SDS011;10431;50.228;9.112;2023-04-24T05:43:14;1.58;;;1.20;;
20545;SDS011;10431;50.228;9.112;2023-04-24T05:45:40;3.25;;;0.95;;
20545;SDS011;10431;50.228;9.112;2023-04-24T05:48:06;2.22;;;1.00;;
20545;SDS011;10431;50.228;9.112;2023-04-24T05:50:32;0.90;;;0.90;;
20545;SDS011;10431;50.228;9.112;2023-04-24T05:52:59;1.10;;;0.90;;
20545;SDS011;10431;50.228;9.112;2023-04-24T05:55:30;0.80;;;0.80;;
20545;SDS011;10431;50.228;9.112;2023-04-24T05:57:56;0.82;;;0.82;;
20545;SDS011;10431;50.228;9.112;2023-04-24T06:00:24;1.10;;;1.00;;
20545;SDS011;10431;50.228;9.112;2023-04-24T06:02:59;1.08;;;0.98;;
20545;SDS011;10431;50.228;9.112;2023-04-24T06:05:26;2.75;;;1.15;;
20545;SDS011;10431;50.228;9.112;2023-04-24T06:07:52;1.88;;;1.30;;
20545;SDS011;10431;50.228;9.112;2023-04-24T06:10:21;2.78;;;1.20;;
20545;SDS011;10431;50.228;9.112;2023-04-24T06:12:49;2.55;;;1.70;;
20545;SDS011;10431;50.228;9.112;2023-04-24T06:15:17;2.58;;;2.05;;
20545;SDS011;10431;50.228;9.112;2023-04-24T06:17:52;6.18;;;2.30;;
20545;SDS011;10431;50.228;9.112;2023-04-24T06:20:19;2.58;;;2.22;;
20545;SDS011;10431;50.228;9.112;2023-04-24T06:22:46;2.75;;;2.05;;
20545;SDS011;10431;50.228;9.112;2023-04-24T06:25:12;4.88;;;2.22;;
20545;SDS011;10431;50.228;9.112;2023-04-24T06:27:38;2.30;;;1.98;;
20545;SDS011;10431;50.228;9.112;2023-04-24T06:30:04;6.93;;;2.40;;
20545;SDS011;10431;50.228;9.112;2023-04-24T06:32:32;2.47;;;2.10;;
20545;SDS011;10431;50.228;9.112;2023-04-24T06:34:59;1.90;;;1.70;;
20545;SDS011;10431;50.228;9.112;2023-04-24T06:37:25;3.78;;;2.90;;
20545;SDS011;10431;50.228;9.112;2023-04-24T06:39:51;3.92;;;1.63;;
20545;SDS011;10431;50.228;9.112;2023-04-24T06:42:18;3.35;;;2.30;;
20545;SDS011;10431;50.228;9.112;2023-04-24T06:44:48;4.00;;;1.95;;
20545;SDS011;10431;50.228;9.112;2023-04-24T06:47:14;3.47;;;2.10;;
20545;SDS011;10431;50.228;9.112;2023-04-24T06:49:41;4.75;;;1.98;;
20545;SDS011;10431;50.228;9.112;2023-04-24T06:52:07;2.47;;;1.75;;
20545;SDS011;10431;50.228;9.112;2023-04-24T06:54:34;3.53;;;2.00;;
20545;SDS011;10431;50.228;9.112;2023-04-24T06:57:00;2.22;;;1.70;;
20545;SDS011;10431;50.228;9.112;2023-04-24T06:59:27;7.28;;;1.75;;
20545;SDS011;10431;50.228;9.112;2023-04-24T07:01:54;3.42;;;1.70;;
20545;SDS011;10431;50.228;9.112;2023-04-24T07:04:20;2.60;;;1.50;;
20545;SDS011;10431;50.228;9.112;2023-04-24T07:06:47;1.92;;;1.48;;
20545;SDS011;10431;50.228;9.112;2023-04-24T07:09:14;1.83;;;1.40;;
20545;SDS011;10431;50.228;9.112;2023-04-24T07:11:42;2.03;;;1.52;;
20545;SDS011;10431;50.228;9.112;2023-04-24T07:14:10;2.22;;;1.50;;
20545;SDS011;10431;50.228;9.112;2023-04-24T07:16:36;4.10;;;1.65;;
20545;SDS011;10431;50.228;9.112;2023-04-24T07:19:02;5.90;;;1.60;;
20545;SDS011;10431;50.228;9.112;2023-04-24T07:21:28;1.80;;;1.63;;
20545;SDS011;10431;50.228;9.112;2023-04-24T07:23:57;3.05;;;1.88;;
20545;SDS011;10431;50.228;9.112;2023-04-24T07:26:24;2.15;;;1.80;;
20545;SDS011;10431;50.228;9.112;2023-04-24T07:28:51;2.00;;;1.80;;
20545;SDS011;10431;50.228;9.112;2023-04-24T07:31:18;3.05;;;1.65;;
20545;SDS011;10431;50.228;9.112;2023-04-24T07:33:45;2.05;;;1.70;;
20545;SDS011;10431;50.228;9.112;2023-04-24T07:36:11;3.15;;;1.70;;
20545;SDS011;10431;50.228;9.112;2023-04-24T07:38:41;1.73;;;1.50;;
20545;SDS011;10431;50.228;9.112;2023-04-24T07:41:08;3.08;;;1.80;;
20545;SDS011;10431;50.228;9.112;2023-04-24T07:43:34;3.38;;;1.88;;
20545;SDS011;10431;50.228;9.112;2023-04-24T07:46:01;1.70;;;1.60;;
20545;SDS011;10431;50.228;9.112;2023-04-24T07:48:27;3.20;;;1.77;;
20545;SDS011;10431;50.228;9.112;2023-04-24T07:50:53;1.73;;;1.63;;
20545;SDS011;10431;50.228;9.112;2023-04-24T07:53:20;1.67;;;1.58;;
20545;SDS011;10431;50.228;9.112;2023-04-24T07:55:46;2.38;;;1.80;;
20545;SDS011;10431;50.228;9.112;2023-04-24T07:58:12;4.97;;;1.70;;
20545;SDS011;10431;50.228;9.112;2023-04-24T08:00:38;1.70;;;1.60;;
20545;SDS011;10431;50.228;9.112;2023-04-24T08:03:05;1.77;;;1.67;;
20545;SDS011;10431;50.228;9.112;2023-04-24T08:05:31;2.75;;;1.90;;
20545;SDS011;10431;50.228;9.112;2023-04-24T08:07:58;4.90;;;1.50;;
20545;SDS011;10431;50.228;9.112;2023-04-24T08:10:24;4.38;;;1.60;;
20545;SDS011;10431;50.228;9.112;2023-04-24T08:12:51;2.75;;;1.77;;
20545;SDS011;10431;50.228;9.112;2023-04-24T08:15:17;2.55;;;1.63;;
20545;SDS011;10431;50.228;9.112;2023-04-24T08:17:44;1.75;;;1.50;;
20545;SDS011;10431;50.228;9.112;2023-04-24T08:20:10;5.13;;;2.08;;
20545;SDS011;10431;50.228;9.112;2023-04-24T08:22:40;2.03;;;1.45;;
20545;SDS011;10431;50.228;9.112;2023-04-24T08:25:07;2.33;;;1.60;;
20545;SDS011;10431;50.228;9.112;2023-04-24T08:27:34;3.13;;;1.50;;
20545;SDS011;10431;50.228;9.112;2023-04-24T08:30:02;1.80;;;1.40;;
20545;SDS011;10431;50.228;9.112;2023-04-24T08:32:29;1.70;;;1.60;;
20545;SDS011;10431;50.228;9.112;2023-04-24T08:34:56;4.93;;;1.65;;
20545;SDS011;10431;50.228;9.112;2023-04-24T08:37:23;2.47;;;1.75;;
20545;SDS011;10431;50.228;9.112;2023-04-24T08:39:50;2.63;;;1.60;;
20545;SDS011;10431;50.228;9.112;2023-04-24T08:42:19;2.67;;;1.70;;
20545;SDS011;10431;50.228;9.112;2023-04-24T08:44:46;1.40;;;1.30;;
20545;SDS011;10431;50.228;9.112;2023-04-24T08:47:15;3.20;;;1.75;;
20545;SDS011;10431;50.228;9.112;2023-04-24T08:49:41;2.70;;;1.77;;
20545;SDS011;10431;50.228;9.112;2023-04-24T08:52:09;4.22;;;1.77;;
20545;SDS011;10431;50.228;9.112;2023-04-24T08:54:35;3.63;;;1.73;;
20545;SDS011;10431;50.228;9.112;2023-04-24T08:57:02;2.33;;;1.70;;
20545;SDS011;10431;50.228;9.112;2023-04-24T08:59:31;2.33;;;1.75;;
20545;SDS011;10431;50.228;9.112;2023-04-24T09:01:59;4.20;;;1.63;;
20545;SDS011;10431;50.228;9.112;2023-04-24T09:04:26;7.40;;;2.65;;
20545;SDS011;10431;50.228;9.112;2023-04-24T09:06:55;5.30;;;1.80;;
20545;SDS011;10431;50.228;9.112;2023-04-24T09:09:23;7.00;;;1.73;;
20545;SDS011;10431;50.228;9.112;2023-04-24T09:11:50;9.68;;;1.63;;
20545;SDS011;10431;50.228;9.112;2023-04-24T09:14:21;7.82;;;1.90;;
20545;SDS011;10431;50.228;9.112;2023-04-24T09:16:49;5.18;;;2.00;;
20545;SDS011;10431;50.228;9.112;2023-04-24T09:19:16;8.05;;;2.00;;
20545;SDS011;10431;50.228;9.112;2023-04-24T09:21:45;5.63;;;1.80;;
20545;SDS011;10431;50.228;9.112;2023-04-24T09:24:16;5.63;;;1.70;;
20545;SDS011;10431;50.228;9.112;2023-04-24T09:26:43;3.00;;;1.75;;
20545;SDS011;10431;50.228;9.112;2023-04-24T09:29:14;5.50;;;1.85;;
20545;SDS011;10431;50.228;9.112;2023-04-24T09:31:42;2.03;;;1.60;;
20545;SDS011;10431;50.228;9.112;2023-04-24T09:34:09;2.28;;;1.48;;
20545;SDS011;10431;50.228;9.112;2023-04-24T09:36:36;4.65;;;1.65;;
20545;SDS011;10431;50.228;9.112;2023-04-24T09:39:08;5.85;;;2.47;;
20545;SDS011;10431;50.228;9.112;2023-04-24T09:41:44;3.92;;;1.67;;
20545;SDS011;10431;50.228;9.112;2023-04-24T09:44:19;6.57;;;1.90;;
20545;SDS011;10431;50.228;9.112;2023-04-24T09:46:50;2.33;;;1.65;;
20545;SDS011;10431;50.228;9.112;2023-04-24T09:49:27;8.90;;;1.67;;
20545;SDS011;10431;50.228;9.112;2023-04-24T09:52:05;2.80;;;1.70;;
20545;SDS011;10431;50.228;9.112;2023-04-24T09:54:33;3.78;;;1.52;;
20545;SDS011;10431;50.228;9.112;2023-04-24T09:56:59;5.28;;;1.50;;
20545;SDS011;10431;50.228;9.112;2023-04-24T09:59:26;3.67;;;1.55;;
20545;SDS011;10431;50.228;9.112;2023-04-24T10:01:53;2.35;;;1.60;;
20545;SDS011;10431;50.228;9.112;2023-04-24T10:04:24;2.47;;;1.60;;
20545;SDS011;10431;50.228;9.112;2023-04-24T10:06:52;2.63;;;1.52;;
20545;SDS011;10431;50.228;9.112;2023-04-24T10:09:21;8.07;;;1.50;;
20545;SDS011;10431;50.228;9.112;2023-04-24T10:11:52;4.45;;;1.88;;
20545;SDS011;10431;50.228;9.112;2023-04-24T10:14:21;5.25;;;1.50;;
20545;SDS011;10431;50.228;9.112;2023-04-24T10:16:49;4.70;;;1.50;;
20545;SDS011;10431;50.228;9.112;2023-04-24T10:19:18;2.75;;;1.83;;
20545;SDS011;10431;50.228;9.112;2023-04-24T10:21:44;3.28;;;2.05;;
20545;SDS011;10431;50.228;9.112;2023-04-24T10:24:14;3.35;;;1.50;;
20545;SDS011;10431;50.228;9.112;2023-04-24T10:26:42;2.10;;;1.50;;
20545;SDS011;10431;50.228;9.112;2023-04-24T10:29:12;2.25;;;1.40;;
20545;SDS011;10431;50.228;9.112;2023-04-24T10:31:41;3.47;;;1.55;;
20545;SDS011;10431;50.228;9.112;2023-04-24T10:34:08;3.53;;;1.40;;
20545;SDS011;10431;50.228;9.112;2023-04-24T10:36:38;3.47;;;1.88;;
20545;SDS011;10431;50.228;9.112;2023-04-24T10:39:08;4.13;;;1.42;;
20545;SDS011;10431;50.228;9.112;2023-04-24T10:41:38;6.53;;;1.95;;
20545;SDS011;10431;50.228;9.112;2023-04-24T10:44:07;4.00;;;1.45;;
20545;SDS011;10431;50.228;9.112;2023-04-24T10:46:38;8.75;;;1.70;;
20545;SDS011;10431;50.228;9.112;2023-04-24T10:49:05;3.85;;;1.50;;
20545;SDS011;10431;50.228;9.112;2023-04-24T10:51:53;3.67;;;1.40;;
20545;SDS011;10431;50.228;9.112;2023-04-24T10:59:48;4.70;;;1.50;;
20545;SDS011;10431;50.228;9.112;2023-04-24T11:02:16;8.45;;;1.65;;
20545;SDS011;10431;50.228;9.112;2023-04-24T11:04:44;3.65;;;1.67;;
20545;SDS011;10431;50.228;9.112;2023-04-24T11:07:13;4.28;;;1.63;;
20545;SDS011;10431;50.228;9.112;2023-04-24T11:09:39;3.92;;;1.55;;
20545;SDS011;10431;50.228;9.112;2023-04-24T11:12:10;2.25;;;1.33;;
20545;SDS011;10431;50.228;9.112;2023-04-24T11:14:59;1.88;;;1.38;;
20545;SDS011;10431;50.228;9.112;2023-04-24T11:17:37;8.80;;;1.90;;
20545;SDS011;10431;50.228;9.112;2023-04-24T11:20:07;3.65;;;1.40;;
20545;SDS011;10431;50.228;9.112;2023-04-24T11:22:38;2.70;;;1.25;;
20545;SDS011;10431;50.228;9.112;2023-04-24T11:25:08;2.00;;;1.30;;
20545;SDS011;10431;50.228;9.112;2023-04-24T11:27:40;4.20;;;1.20;;
20545;SDS011;10431;50.228;9.112;2023-04-24T11:30:08;3.47;;;1.48;;
20545;SDS011;10431;50.228;9.112;2023-04-24T11:32:36;4.28;;;2.00;;
20545;SDS011;10431;50.228;9.112;2023-04-24T11:35:17;3.15;;;1.30;;
20545;SDS011;10431;50.228;9.112;2023-04-24T11:37:48;3.58;;;1.55;;
20545;SDS011;10431;50.228;9.112;2023-04-24T11:40:17;9.43;;;1.90;;
20545;SDS011;10431;50.228;9.112;2023-04-24T11:42:49;7.55;;;1.75;;
20545;SDS011;10431;50.228;9.112;2023-04-24T11:45:17;6.65;;;1.50;;
20545;SDS011;10431;50.228;9.112;2023-04-24T11:47:47;1.92;;;1.40;;
20545;SDS011;10431;50.228;9.112;2023-04-24T11:50:14;4.22;;;1.40;;
20545;SDS011;10431;50.228;9.112;2023-04-24T11:52:42;5.18;;;1.50;;
20545;SDS011;10431;50.228;9.112;2023-04-24T11:57:43;9.55;;;1.40;;
20545;SDS011;10431;50.228;9.112;2023-04-24T12:00:17;2.17;;;1.33;;
20545;SDS011;10431;50.228;9.112;2023-04-24T12:02:48;4.60;;;1.60;;
20545;SDS011;10431;50.228;9.112;2023-04-24T12:05:22;1.98;;;1.27;;
20545;SDS011;10431;50.228;9.112;2023-04-24T12:07:49;3.15;;;1.70;;
20545;SDS011;10431;50.228;9.112;2023-04-24T12:10:22;4.22;;;1.38;;
20545;SDS011;10431;50.228;9.112;2023-04-24T12:12:50;7.03;;;1.67;;
20545;SDS011;10431;50.228;9.112;2023-04-24T12:15:17;6.53;;;1.63;;
20545;SDS011;10431;50.228;9.112;2023-04-24T12:17:44;1.55;;;1.30;;
20545;SDS011;10431;50.228;9.112;2023-04-24T12:20:11;2.50;;;1.42;;
20545;SDS011;10431;50.228;9.112;2023-04-24T12:25:20;4.88;;;1.50;;
20545;SDS011;10431;50.228;9.112;2023-04-24T12:28:10;8.50;;;2.30;;
20545;SDS011;10431;50.228;9.112;2023-04-24T12:30:41;10.13;;;2.67;;
20545;SDS011;10431;50.228;9.112;2023-04-24T12:33:17;5.65;;;2.55;;
20545;SDS011;10431;50.228;9.112;2023-04-24T12:35:45;7.63;;;2.80;;
20545;SDS011;10431;50.228;9.112;2023-04-24T12:38:12;4.40;;;2.10;;
20545;SDS011;10431;50.228;9.112;2023-04-24T12:40:39;6.60;;;1.92;;
20545;SDS011;10431;50.228;9.112;2023-04-24T12:43:16;2.60;;;1.50;;
20545;SDS011;10431;50.228;9.112;2023-04-24T12:45:44;4.68;;;1.80;;
20545;SDS011;10431;50.228;9.112;2023-04-24T12:48:13;4.32;;;1.25;;
20545;SDS011;10431;50.228;9.112;2023-04-24T12:50:40;3.08;;;1.60;;
20545;SDS011;10431;50.228;9.112;2023-04-24T12:53:07;2.70;;;1.70;;
20545;SDS011;10431;50.228;9.112;2023-04-24T12:55:34;2.15;;;1.90;;
20545;SDS011;10431;50.228;9.112;2023-04-24T12:58:01;3.58;;;2.10;;
20545;SDS011;10431;50.228;9.112;2023-04-24T13:00:28;2.15;;;1.52;;
20545;SDS011;10431;50.228;9.112;2023-04-24T13:02:55;2.55;;;1.50;;
20545;SDS011;10431;50.228;9.112;2023-04-24T13:05:21;3.03;;;1.55;;
20545;SDS011;10431;50.228;9.112;2023-04-24T13:07:47;5.47;;;1.25;;
20545;SDS011;10431;50.228;9.112;2023-04-24T13:10:13;2.55;;;1.40;;
20545;SDS011;10431;50.228;9.112;2023-04-24T13:12:40;1.85;;;1.30;;
20545;SDS011;10431;50.228;9.112;2023-04-24T13:15:06;2.83;;;1.40;;
20545;SDS011;10431;50.228;9.112;2023-04-24T13:17:33;7.38;;;1.55;;
20545;SDS011;10431;50.228;9.112;2023-04-24T13:19:59;3.75;;;1.50;;
20545;SDS011;10431;50.228;9.112;2023-04-24T13:22:25;14.77;;;1.98;;
20545;SDS011;10431;50.228;9.112;2023-04-24T13:24:52;7.43;;;1.85;;
20545;SDS011;10431;50.228;9.112;2023-04-24T13:27:19;10.93;;;2.05;;
20545;SDS011;10431;50.228;9.112;2023-04-24T13:29:45;5.13;;;2.10;;
20545;SDS011;10431;50.228;9.112;2023-04-24T13:32:11;9.40;;;2.00;;
20545;SDS011;10431;50.228;9.112;2023-04-24T13:34:37;10.50;;;2.03;;
20545;SDS011;10431;50.228;9.112;2023-04-24T13:37:04;15.48;;;2.95;;
20545;SDS011;10431;50.228;9.112;2023-04-24T13:39:31;6.72;;;1.90;;
20545;SDS011;10431;50.228;9.112;2023-04-24T13:41:58;4.93;;;1.80;;
20545;SDS011;10431;50.228;9.112;2023-04-24T13:44:24;4.60;;;1.83;;
20545;SDS011;10431;50.228;9.112;2023-04-24T13:46:51;9.18;;;2.20;;
20545;SDS011;10431;50.228;9.112;2023-04-24T13:49:20;5.85;;;1.90;;
20545;SDS011;10431;50.228;9.112;2023-04-24T13:51:47;6.75;;;1.73;;
20545;SDS011;10431;50.228;9.112;2023-04-24T13:54:13;14.93;;;2.70;;
20545;SDS011;10431;50.228;9.112;2023-04-24T13:56:40;11.75;;;2.75;;
20545;SDS011;10431;50.228;9.112;2023-04-24T13:59:06;8.50;;;2.50;;
20545;SDS011;10431;50.228;9.112;2023-04-24T14:01:33;7.20;;;2.58;;
20545;SDS011;10431;50.228;9.112;2023-04-24T14:04:00;9.82;;;2.22;;
20545;SDS011;10431;50.228;9.112;2023-04-24T14:06:26;10.02;;;2.22;;
20545;SDS011;10431;50.228;9.112;2023-04-24T14:08:53;5.60;;;2.42;;
20545;SDS011;10431;50.228;9.112;2023-04-24T14:11:19;7.57;;;2.22;;
20545;SDS011;10431;50.228;9.112;2023-04-24T14:13:46;11.55;;;2.90;;
20545;SDS011;10431;50.228;9.112;2023-04-24T14:16:12;6.53;;;2.45;;
20545;SDS011;10431;50.228;9.112;2023-04-24T14:18:39;4.38;;;2.05;;
20545;SDS011;10431;50.228;9.112;2023-04-24T14:21:06;6.68;;;2.38;;
20545;SDS011;10431;50.228;9.112;2023-04-24T14:23:33;6.30;;;2.10;;
20545;SDS011;10431;50.228;9.112;2023-04-24T14:25:59;13.30;;;2.63;;
20545;SDS011;10431;50.228;9.112;2023-04-24T14:28:25;11.27;;;3.05;;
20545;SDS011;10431;50.228;9.112;2023-04-24T14:30:52;9.40;;;2.40;;
20545;SDS011;10431;50.228;9.112;2023-04-24T14:33:19;5.57;;;2.25;;
20545;SDS011;10431;50.228;9.112;2023-04-24T14:35:45;9.10;;;2.90;;
20545;SDS011;10431;50.228;9.112;2023-04-24T14:38:11;10.85;;;2.60;;
20545;SDS011;10431;50.228;9.112;2023-04-24T14:40:38;9.40;;;2.75;;
20545;SDS011;10431;50.228;9.112;2023-04-24T14:43:04;6.90;;;2.53;;
20545;SDS011;10431;50.228;9.112;2023-04-24T14:45:30;7.50;;;2.20;;
20545;SDS011;10431;50.228;9.112;2023-04-24T14:47:57;7.65;;;2.90;;
20545;SDS011;10431;50.228;9.112;2023-04-24T14:50:23;4.57;;;2.13;;
20545;SDS011;10431;50.228;9.112;2023-04-24T14:52:53;10.18;;;2.35;;
20545;SDS011;10431;50.228;9.112;2023-04-24T14:55:23;6.53;;;2.30;;
20545;SDS011;10431;50.228;9.112;2023-04-24T14:57:50;7.88;;;2.17;;
20545;SDS011;10431;50.228;9.112;2023-04-24T15:00:16;6.50;;;2.13;;
20545;SDS011;10431;50.228;9.112;2023-04-24T15:02:43;7.57;;;2.30;;